Time;durP1;ratioP1;P1;durP2;ratioP2;P2;SDS_P1;SDS_P2;PMS_P1;PMS_P2;Temp;Humidity;BMP_temperature;BMP_pressure;BME280_temperature;BME280_humidity;BME280_pressure;Samples;Min_cycle;Max_cycle;Signal;HPM_P1;HPM_P2
2022/07/02 00:00:55;;;;;;;7.15;6.55;;;;;;;22.24;67.71;64304.78;5025256;28;20202;-78
2022/07/02 00:03:29;;;;;;;7.93;5.93;;;;;;;22.16;68.81;64299.00;5025811;28;20482;-78
2022/07/02 00:05:57;;;;;;;6.00;5.60;;;;;;;22.15;68.63;64290.19;5025924;28;20506;-79
2022/07/02 00:08:26;;;;;;;6.85;6.25;;;;;;;22.12;69.96;64289.13;5026630;28;20218;-78
2022/07/02 00:10:55;;;;;;;6.95;6.30;;;;;;;22.17;70.10;64296.94;5029865;28;20252;-79
2022/07/02 00:13:23;;;;;;;5.53;5.18;;;;;;;22.12;70.29;64294.84;5027604;28;20234;-78
2022/07/02 00:15:50;;;;;;;6.55;5.95;;;;;;;22.13;70.46;64293.28;5027023;28;20205;-78
2022/07/02 00:18:18;;;;;;;7.07;5.43;;;;;;;21.93;72.52;64269.28;5026439;28;20288;-77
2022/07/02 00:20:46;;;;;;;6.85;6.28;;;;;;;21.83;74.10;64261.41;5025131;28;20198;-77
2022/07/02 00:23:13;;;;;;;6.90;6.30;;;;;;;21.69;73.66;64247.81;5025529;28;20227;-79
2022/07/02 00:25:44;;;;;;;6.32;5.72;;;;;;;21.63;73.65;64241.00;5025346;28;20249;-78
2022/07/02 00:28:13;;;;;;;9.43;6.20;;;;;;;21.61;73.96;64239.44;5025448;28;20218;-77
2022/07/02 00:30:42;;;;;;;7.85;5.95;;;;;;;21.65;73.93;64245.69;5025228;28;20214;-78
2022/07/02 00:33:13;;;;;;;6.82;6.10;;;;;;;21.74;73.48;64255.63;5025826;28;20230;-77
2022/07/02 00:35:40;;;;;;;7.15;6.47;;;;;;;21.77;73.77;64255.66;5026100;28;20201;-77
2022/07/02 00:38:07;;;;;;;6.25;5.70;;;;;;;21.78;72.95;64256.69;5019723;28;20215;-78
2022/07/02 00:40:35;;;;;;;6.38;5.78;;;;;;;21.79;73.32;64257.75;5018958;28;20236;-77
2022/07/02 00:43:04;;;;;;;7.63;6.10;;;;;;;21.88;72.51;64269.75;5023986;28;20226;-77
2022/07/02 00:45:34;;;;;;;6.32;5.70;;;;;;;21.83;72.90;64261.94;5027105;28;20248;-77
2022/07/02 00:48:01;;;;;;;8.02;5.85;;;;;;;21.84;73.93;64265.03;5028115;28;20229;-76
2022/07/02 00:50:28;;;;;;;6.40;5.93;;;;;;;21.77;74.81;64255.66;5024738;28;20198;-77
2022/07/02 00:52:55;;;;;;;7.38;5.82;;;;;;;21.72;74.52;64250.41;5024612;28;20221;-77
2022/07/02 00:55:22;;;;;;;6.45;5.95;;;;;;;21.70;74.38;64248.84;5024701;28;20226;-77
2022/07/02 00:57:50;;;;;;;6.32;5.82;;;;;;;21.71;74.32;64249.38;5024771;28;20225;-77
2022/07/02 01:00:21;;;;;;;6.50;6.00;;;;;;;21.73;74.11;64248.88;5022615;28;20202;-77
2022/07/02 01:02:50;;;;;;;6.55;6.10;;;;;;;21.75;73.76;64253.56;5024371;28;20269;-76
2022/07/02 01:05:18;;;;;;;6.97;6.38;;;;;;;21.80;75.26;64258.78;5023065;28;20498;-76
2022/07/02 01:07:47;;;;;;;6.97;5.93;;;;;;;21.79;74.68;64260.84;5020881;28;20289;-78
2022/07/02 01:10:18;;;;;;;7.05;6.45;;;;;;;21.77;74.10;64256.19;5008253;28;20226;-77
2022/07/02 01:12:46;;;;;;;8.02;6.32;;;;;;;21.74;74.66;64253.03;5025354;28;20289;-77
2022/07/02 01:15:14;;;;;;;8.20;6.45;;;;;;;21.65;75.99;64237.91;5024591;28;20237;-77
2022/07/02 01:17:42;;;;;;;6.65;5.93;;;;;;;21.62;76.59;64234.78;5023913;28;20250;-76
2022/07/02 01:20:11;;;;;;;11.27;7.55;;;;;;;21.69;76.17;64247.28;5017516;28;20240;-77
2022/07/02 01:22:40;;;;;;;7.43;6.82;;;;;;;21.63;75.88;64246.19;5023334;28;20531;-77
2022/07/02 01:25:09;;;;;;;7.10;6.57;;;;;;;21.56;77.47;64231.09;5025113;28;20194;-76
2022/07/02 01:27:36;;;;;;;6.80;6.20;;;;;;;21.53;77.78;64227.97;5021994;28;20527;-76
2022/07/02 01:30:04;;;;;;;6.85;6.32;;;;;;;21.65;76.40;64240.50;5030187;28;20198;-76
2022/07/02 01:32:31;;;;;;;7.03;6.30;;;;;;;21.60;77.05;64238.41;5025374;28;20439;-77
2022/07/02 01:35:05;;;;;;;6.93;6.40;;;;;;;21.52;77.19;64224.84;5010341;28;20230;-76
2022/07/02 01:37:32;;;;;;;6.53;5.78;;;;;;;21.60;77.48;64235.81;5016330;28;20224;-77
2022/07/02 01:40:00;;;;;;;7.38;6.53;;;;;;;21.62;76.50;64243.06;5015335;28;20210;-76
2022/07/02 01:42:27;;;;;;;8.43;6.68;;;;;;;21.58;76.24;64236.31;5014023;28;20267;-77
2022/07/02 01:44:54;;;;;;;6.70;6.20;;;;;;;21.57;76.71;64232.66;5025133;28;20364;-76
2022/07/02 01:47:21;;;;;;;6.15;5.63;;;;;;;21.59;77.14;64236.81;5025205;28;20214;-77
2022/07/02 01:49:48;;;;;;;7.07;6.38;;;;;;;21.56;77.03;64233.69;5024684;28;20273;-77
2022/07/02 01:52:16;;;;;;;6.60;6.00;;;;;;;21.56;77.17;64236.81;5023986;28;20553;-77
2022/07/02 01:54:44;;;;;;;6.88;6.28;;;;;;;21.53;77.55;64230.56;5022856;28;20480;-76
2022/07/02 01:57:13;;;;;;;8.00;6.47;;;;;;;21.60;77.26;64235.81;5022778;28;20487;-76
2022/07/02 01:59:41;;;;;;;6.25;5.75;;;;;;;21.50;79.38;64222.75;5024471;28;20200;-77
2022/07/02 02:02:07;;;;;;;7.72;6.95;;;;;;;21.35;81.31;64209.69;5025083;28;20222;-77
2022/07/02 02:04:35;;;;;;;10.40;7.30;;;;;;;21.34;81.26;64213.84;5024043;28;20194;-78
2022/07/02 02:07:02;;;;;;;7.13;6.55;;;;;;;21.32;81.37;64208.63;5023339;28;20206;-78
2022/07/02 02:09:29;;;;;;;6.88;6.38;;;;;;;21.29;81.72;64202.91;5023787;28;20194;-76
2022/07/02 02:11:55;;;;;;;6.97;6.38;;;;;;;21.26;81.63;64202.88;5021970;28;20202;-77
2022/07/02 02:14:24;;;;;;;7.35;6.75;;;;;;;21.25;80.22;64201.84;5023492;28;20271;-77
2022/07/02 02:16:51;;;;;;;6.57;6.07;;;;;;;21.16;80.64;64191.91;5025823;28;20225;-76
2022/07/02 02:19:18;;;;;;;7.82;6.43;;;;;;;21.14;81.17;64190.34;5027491;28;20194;-76
2022/07/02 02:21:44;;;;;;;7.43;5.90;;;;;;;21.12;80.78;64188.25;5024957;28;20220;-77
2022/07/02 02:24:11;;;;;;;7.63;6.90;;;;;;;21.14;80.57;64192.94;5027808;28;20202;-77
2022/07/02 02:26:38;;;;;;;6.93;6.30;;;;;;;21.15;81.31;64190.88;5027418;28;20205;-77
2022/07/02 02:29:05;;;;;;;9.95;6.82;;;;;;;21.16;80.90;64195.03;5026223;28;20422;-76
2022/07/02 02:31:34;;;;;;;6.40;5.93;;;;;;;21.12;81.35;64193.44;5027022;28;20244;-78
2022/07/02 02:34:01;;;;;;;5.97;5.55;;;;;;;21.03;83.04;64178.88;5025073;28;20250;-78
2022/07/02 02:36:28;;;;;;;5.97;5.57;;;;;;;21.05;83.47;64183.56;5026985;28;20260;-77
2022/07/02 02:38:54;;;;;;;6.68;6.10;;;;;;;21.00;82.91;64167.97;5027256;28;20237;-78
2022/07/02 02:41:21;;;;;;;7.35;6.82;;;;;;;21.04;83.48;64179.38;5014718;28;20198;-77
2022/07/02 02:43:48;;;;;;;7.72;7.03;;;;;;;21.02;84.15;64177.31;5027151;28;20221;-77
2022/07/02 02:46:15;;;;;;;11.63;7.75;;;;;;;20.99;85.17;64174.16;5026998;28;20301;-77
2022/07/02 02:48:43;;;;;;;7.90;7.03;;;;;;;20.94;86.54;64168.91;5026880;28;20220;-78
2022/07/02 02:51:13;;;;;;;9.23;7.50;;;;;;;20.90;86.71;64164.75;5026532;28;20194;-77
2022/07/02 02:53:42;;;;;;;9.27;7.45;;;;;;;20.86;87.03;64158.50;5026465;28;20217;-77
2022/07/02 02:56:10;;;;;;;9.50;8.07;;;;;;;20.89;86.48;64164.22;5025487;28;20226;-78
2022/07/02 02:58:37;;;;;;;7.38;6.72;;;;;;;20.90;86.76;64164.75;5026070;28;20213;-78
2022/07/02 03:01:04;;;;;;;8.02;7.22;;;;;;;20.87;86.89;64159.56;5026806;28;20201;-77
2022/07/02 03:03:31;;;;;;;7.75;6.93;;;;;;;20.79;88.21;64153.78;5026215;28;20224;-78
2022/07/02 03:06:00;;;;;;;7.55;6.80;;;;;;;20.74;89.10;64148.56;5026325;28;20525;-77
2022/07/02 03:08:27;;;;;;;7.70;7.00;;;;;;;20.75;89.03;64149.09;5026975;28;20253;-77
2022/07/02 03:10:54;;;;;;;7.80;7.18;;;;;;;20.78;87.86;64152.75;5026202;28;20202;-78
2022/07/02 03:13:21;;;;;;;10.48;6.53;;;;;;;20.80;88.03;64157.41;5028227;28;20226;-77
2022/07/02 03:15:48;;;;;;;9.05;6.82;;;;;;;20.77;88.48;64149.13;5030788;28;20256;-77
2022/07/02 03:18:15;;;;;;;6.93;6.32;;;;;;;20.77;89.18;64151.69;5026614;28;20237;-77
2022/07/02 03:20:43;;;;;;;6.78;6.28;;;;;;;20.71;89.73;64145.44;5026391;28;20190;-77
2022/07/02 03:23:11;;;;;;;7.18;6.53;;;;;;;20.82;90.15;64151.75;5026330;28;20367;-77
2022/07/02 03:25:38;;;;;;;7.70;7.00;;;;;;;20.81;90.41;64153.28;5026233;28;20261;-77
2022/07/02 03:28:06;;;;;;;8.55;7.57;;;;;;;20.85;90.64;64159.53;5011389;28;20400;-78
2022/07/02 03:30:32;;;;;;;7.05;6.55;;;;;;;20.87;90.09;64159.56;5007540;28;20224;-77
2022/07/02 03:32:59;;;;;;;9.02;7.72;;;;;;;20.93;90.59;64170.47;5021291;28;20217;-77
2022/07/02 03:35:26;;;;;;;7.78;7.07;;;;;;;20.99;90.58;64169.50;5026858;28;20249;-78
2022/07/02 03:37:53;;;;;;;8.00;7.40;;;;;;;21.03;90.31;64176.28;5009523;28;20219;-77
2022/07/02 03:40:21;;;;;;;7.47;6.85;;;;;;;21.05;90.45;64180.44;5006932;28;20195;-77
2022/07/02 03:42:48;;;;;;;14.35;7.53;;;;;;;21.17;89.68;64190.38;5026377;28;20229;-77
2022/07/02 03:45:15;;;;;;;7.15;6.65;;;;;;;21.25;88.86;64204.44;5026578;28;20202;-78
2022/07/02 03:47:42;;;;;;;7.97;7.38;;;;;;;21.30;89.27;64207.06;5011201;28;20222;-77
2022/07/02 03:50:09;;;;;;;7.65;7.05;;;;;;;21.35;90.09;64212.28;5016569;28;20202;-77
2022/07/02 03:52:38;;;;;;;8.57;7.68;;;;;;;21.44;90.88;64221.16;5028566;28;20218;-77
2022/07/02 03:55:06;;;;;;;7.55;6.95;;;;;;;21.56;90.29;64231.09;5026942;28;20226;-77
2022/07/02 03:57:35;;;;;;;7.65;6.97;;;;;;;21.63;89.06;64238.41;5026087;28;20572;-77
2022/07/02 04:00:02;;;;;;;7.97;7.18;;;;;;;21.68;89.51;64246.75;5024149;28;20221;-77
2022/07/02 04:02:29;;;;;;;8.40;7.63;;;;;;;21.73;90.74;64254.06;5026020;28;20219;-77
2022/07/02 04:04:55;;;;;;;8.38;7.57;;;;;;;21.57;91.35;64235.25;5026008;28;20206;-78
2022/07/02 04:07:22;;;;;;;10.88;8.32;;;;;;;21.45;92.11;64219.63;5026048;28;20265;-77
2022/07/02 04:09:49;;;;;;;8.98;8.18;;;;;;;21.60;92.71;64238.41;5026020;28;20202;-77
2022/07/02 04:12:16;;;;;;;14.77;10.02;;;;;;;21.77;90.57;64256.19;5025098;28;20415;-77
2022/07/02 04:14:44;;;;;;;10.52;9.43;;;;;;;22.02;90.12;64283.88;5024213;28;20222;-76
2022/07/02 04:17:11;;;;;;;10.25;8.88;;;;;;;22.18;88.62;64295.38;5025947;28;20252;-78
2022/07/02 04:19:38;;;;;;;10.23;9.23;;;;;;;22.34;87.75;64312.66;5026369;28;20209;-76
2022/07/02 04:22:05;;;;;;;9.25;8.45;;;;;;;22.49;88.68;64327.78;5028176;28;20225;-76
2022/07/02 04:24:33;;;;;;;12.02;9.13;;;;;;;22.59;87.58;64340.88;5027691;28;20182;-77
2022/07/02 04:26:59;;;;;;;12.30;8.30;;;;;;;22.72;84.45;64354.47;5026379;28;20209;-77
2022/07/02 04:29:26;;;;;;;9.70;8.18;;;;;;;22.86;81.65;64369.09;5024055;28;20198;-77
2022/07/02 04:31:54;;;;;;;9.27;8.38;;;;;;;23.05;81.72;64388.44;5013176;28;20269;-77
2022/07/02 04:34:21;;;;;;;10.60;7.57;;;;;;;23.17;79.25;64401.53;5020800;28;20198;-78
2022/07/02 04:36:48;;;;;;;9.18;7.95;;;;;;;23.25;74.73;64409.88;5025208;28;20429;-77
2022/07/02 04:39:15;;;;;;;9.00;7.35;;;;;;;23.11;74.60;64397.84;5025261;28;20278;-77
2022/07/02 04:41:42;;;;;;;10.43;8.10;;;;;;;23.16;74.63;64399.97;5023065;28;20360;-77
2022/07/02 04:44:09;;;;;;;10.98;8.90;;;;;;;23.04;77.95;64387.91;5010523;28;20303;-77
2022/07/02 04:46:35;;;;;;;16.85;9.00;;;;;;;22.93;79.14;64376.44;5024655;28;20245;-78
2022/07/02 04:49:04;;;;;;;14.75;9.95;;;;;;;22.85;83.86;64368.03;5026251;28;20229;-77
2022/07/02 04:51:31;;;;;;;12.82;9.07;;;;;;;22.92;84.20;64374.84;5028303;28;20198;-77
2022/07/02 04:53:58;;;;;;;9.48;8.70;;;;;;;22.90;84.44;64370.69;5027501;28;20213;-77
2022/07/02 04:56:27;;;;;;;11.65;10.07;;;;;;;22.63;85.72;64345.03;5025002;28;20448;-77
2022/07/02 04:58:54;;;;;;;9.55;8.60;;;;;;;22.75;88.10;64357.59;5025900;28;20279;-76
2022/07/02 05:01:21;;;;;;;10.70;8.60;;;;;;;22.96;87.53;64376.44;5025843;28;20218;-77
2022/07/02 05:03:48;;;;;;;11.15;9.05;;;;;;;23.04;86.71;64387.41;5026157;28;20217;-76
2022/07/02 05:06:16;;;;;;;12.63;9.32;;;;;;;22.97;85.18;64383.19;5023749;28;20203;-76
2022/07/02 05:08:43;;;;;;;10.13;9.23;;;;;;;23.13;85.27;64399.94;5024003;28;20218;-77
2022/07/02 05:11:10;;;;;;;9.85;8.82;;;;;;;23.29;84.82;64416.16;5023204;28;20431;-76
2022/07/02 05:13:36;;;;;;;9.82;8.98;;;;;;;23.29;83.06;64416.69;5023353;28;20418;-76
2022/07/02 05:16:04;;;;;;;9.93;8.48;;;;;;;23.46;82.60;64431.88;5024023;28;20248;-77
2022/07/02 05:18:31;;;;;;;10.30;9.30;;;;;;;23.56;81.37;64441.81;5022852;28;21672;-77
2022/07/02 05:20:57;;;;;;;12.52;9.25;;;;;;;23.36;80.59;64421.44;5023770;28;20194;-78
2022/07/02 05:23:26;;;;;;;12.15;10.63;;;;;;;23.30;79.50;64415.13;5022563;28;20218;-78
2022/07/02 05:25:53;;;;;;;10.20;9.23;;;;;;;23.25;78.93;64407.28;5022391;28;20405;-77
2022/07/02 05:28:20;;;;;;;13.02;10.27;;;;;;;23.38;78.87;64418.31;5017689;28;20515;-78
2022/07/02 05:30:47;;;;;;;10.35;9.38;;;;;;;23.16;81.69;64397.38;5006435;28;20525;-78
2022/07/02 05:33:14;;;;;;;12.38;9.30;;;;;;;23.19;80.68;64398.44;5021249;28;20223;-78
2022/07/02 05:35:41;;;;;;;9.48;8.68;;;;;;;23.26;78.22;64416.16;5003876;28;20586;-77
2022/07/02 05:38:08;;;;;;;11.52;9.10;;;;;;;23.23;80.18;64407.78;5016458;28;20276;-78
2022/07/02 05:40:37;;;;;;;10.70;8.10;;;;;;;23.42;79.38;64424.56;5015197;28;20286;-76
2022/07/02 05:43:04;;;;;;;9.68;8.70;;;;;;;23.50;78.63;64438.16;5010867;28;20226;-77
2022/07/02 05:45:31;;;;;;;9.93;8.77;;;;;;;23.74;75.83;64461.19;5018013;28;20387;-77
2022/07/02 05:47:58;;;;;;;10.45;8.65;;;;;;;24.05;74.04;64495.19;5012673;28;20237;-76
2022/07/02 05:50:25;;;;;;;9.50;8.68;;;;;;;24.23;72.75;64511.94;5010221;28;20390;-77
2022/07/02 05:52:51;;;;;;;9.30;8.30;;;;;;;24.29;72.82;64517.72;5009057;28;20214;-77
2022/07/02 05:55:19;;;;;;;9.27;8.48;;;;;;;24.44;71.34;64533.94;5012475;28;20254;-77
2022/07/02 05:57:47;;;;;;;11.73;8.48;;;;;;;24.36;69.98;64525.56;5023708;28;20222;-77
2022/07/02 06:00:14;;;;;;;12.93;8.02;;;;;;;24.19;70.50;64509.84;5023116;28;20441;-77
2022/07/02 06:02:41;;;;;;;9.27;8.18;;;;;;;23.87;73.30;64477.38;5023545;28;20533;-78
2022/07/02 06:07:49;;;;;;;11.50;8.73;;;;;;;23.94;73.66;64481.56;5022538;28;20210;-76
2022/07/02 06:10:18;;;;;;;11.82;9.63;;;;;;;23.96;74.54;64479.00;5021932;28;20208;-76
2022/07/02 06:12:48;;;;;;;11.13;8.68;;;;;;;24.09;73.31;64496.78;5020235;28;20221;-74
2022/07/02 06:15:15;;;;;;;9.10;8.30;;;;;;;24.23;74.28;64514.03;5021179;28;20236;-75
2022/07/02 06:17:42;;;;;;;14.80;9.07;;;;;;;24.36;74.22;64525.56;5023362;28;20510;-76
2022/07/02 06:20:10;;;;;;;16.10;8.98;;;;;;;24.33;72.52;64519.84;5022861;28;20404;-76
2022/07/02 06:22:37;;;;;;;9.95;8.90;;;;;;;24.41;72.77;64530.81;5009102;28;20266;-75
2022/07/02 06:25:04;;;;;;;13.13;10.10;;;;;;;24.76;72.00;64567.47;5022377;28;20206;-76
2022/07/02 06:27:33;;;;;;;13.93;9.25;;;;;;;24.94;70.14;64585.78;5022229;28;20229;-77
2022/07/02 06:30:01;;;;;;;13.25;9.13;;;;;;;24.80;70.40;64574.25;5022518;28;20190;-75
2022/07/02 06:32:28;;;;;;;9.93;8.95;;;;;;;24.76;71.27;64564.88;5022434;28;20211;-76
2022/07/02 06:34:55;;;;;;;10.60;9.57;;;;;;;24.90;71.42;64584.72;5020218;28;20401;-75
2022/07/02 06:37:23;;;;;;;13.18;8.82;;;;;;;24.97;73.34;64589.47;5022219;28;20224;-75
2022/07/02 06:39:50;;;;;;;19.80;9.13;;;;;;;25.17;73.07;64609.38;5018579;28;20240;-77
2022/07/02 06:42:20;;;;;;;15.32;9.55;;;;;;;25.18;71.11;64616.16;5023740;28;20233;-77
2022/07/02 06:44:48;;;;;;;15.13;9.57;;;;;;;25.08;70.72;64605.69;5021967;28;20533;-75
2022/07/02 06:47:17;;;;;;;12.02;9.43;;;;;;;25.31;72.80;64627.19;5022369;28;20221;-75
2022/07/02 06:49:45;;;;;;;13.30;9.30;;;;;;;25.54;68.55;64646.06;5022902;28;20194;-76
2022/07/02 06:52:14;;;;;;;13.85;9.73;;;;;;;25.53;69.56;64649.72;5021461;28;20406;-76
2022/07/02 06:54:42;;;;;;;11.15;10.07;;;;;;;25.41;70.56;64635.06;5021414;28;20202;-76
2022/07/02 06:57:09;;;;;;;11.77;10.10;;;;;;;25.64;70.56;64661.25;5022716;28;20242;-75
2022/07/02 06:59:38;;;;;;;12.20;9.00;;;;;;;25.58;70.06;64652.34;5021642;28;20209;-77
2022/07/02 07:02:05;;;;;;;14.50;9.55;;;;;;;25.65;69.37;64662.28;5013908;28;20242;-76
2022/07/02 07:04:35;;;;;;;15.30;9.93;;;;;;;25.66;68.66;64660.75;5026559;28;20233;-76
2022/07/02 07:07:04;;;;;;;13.00;9.00;;;;;;;25.74;68.12;64669.66;5025860;28;20246;-76
2022/07/02 07:09:34;;;;;;;16.17;9.27;;;;;;;25.75;69.03;64668.06;5026700;28;20240;-75
2022/07/02 07:12:01;;;;;;;10.60;9.50;;;;;;;25.85;68.61;64680.66;5025794;28;20269;-76
2022/07/02 07:14:29;;;;;;;13.93;10.25;;;;;;;26.05;67.95;64699.53;5025694;28;20194;-77
2022/07/02 07:16:55;;;;;;;10.85;9.85;;;;;;;26.36;65.76;64739.34;5025863;28;20229;-75
2022/07/02 07:19:22;;;;;;;12.55;9.93;;;;;;;26.42;66.50;64742.50;5025887;28;20195;-76
2022/07/02 07:21:51;;;;;;;10.98;9.90;;;;;;;26.59;63.87;64760.34;5025650;28;20197;-75
2022/07/02 07:24:18;;;;;;;11.68;9.30;;;;;;;26.47;62.22;64745.13;5025070;28;20391;-75
2022/07/02 07:26:45;;;;;;;9.88;9.02;;;;;;;26.50;63.47;64748.28;5025237;28;20209;-75
2022/07/02 07:29:12;;;;;;;13.38;9.63;;;;;;;26.35;63.40;64733.09;5026076;28;20458;-76
2022/07/02 07:31:40;;;;;;;12.65;9.48;;;;;;;26.43;61.86;64740.94;5026006;28;20482;-76
2022/07/02 07:34:07;;;;;;;12.23;9.40;;;;;;;26.46;61.08;64747.22;5025141;28;20268;-76
2022/07/02 07:36:34;;;;;;;15.40;10.13;;;;;;;26.48;62.20;64746.19;5025580;28;20230;-76
2022/07/02 07:39:03;;;;;;;13.55;9.80;;;;;;;26.57;62.11;64753.53;5025498;28;20285;-75
2022/07/02 07:41:31;;;;;;;9.93;8.75;;;;;;;26.85;61.75;64782.41;5026030;28;20281;-75
2022/07/02 07:43:57;;;;;;;12.52;8.82;;;;;;;26.71;62.23;64770.84;5025437;28;20280;-75
2022/07/02 07:46:24;;;;;;;9.57;8.77;;;;;;;26.74;61.44;64778.69;5021123;28;20261;-77
2022/07/02 07:48:51;;;;;;;10.65;9.65;;;;;;;26.85;60.67;64782.41;5010440;28;20261;-75
2022/07/02 07:51:18;;;;;;;11.60;9.93;;;;;;;26.95;60.75;64795.50;5020801;28;20214;-76
2022/07/02 07:53:45;;;;;;;10.63;9.52;;;;;;;27.15;60.48;64817.00;5017168;28;20242;-76
2022/07/02 07:56:15;;;;;;;10.73;9.57;;;;;;;27.26;60.50;64828.56;5005549;28;20234;-75
2022/07/02 07:58:42;;;;;;;15.32;10.43;;;;;;;27.16;60.46;64820.16;5005375;28;20234;-76
2022/07/02 08:01:08;;;;;;;11.15;10.13;;;;;;;27.41;62.51;64846.38;5021046;28;20260;-76
2022/07/02 08:03:35;;;;;;;11.13;10.02;;;;;;;27.36;60.51;64835.38;5024904;28;20221;-76
2022/07/02 08:06:02;;;;;;;11.35;10.00;;;;;;;27.72;58.97;64881.53;5024942;28;20198;-77
2022/07/02 08:08:29;;;;;;;15.27;10.40;;;;;;;27.49;59.31;64852.16;5025292;28;20222;-76
2022/07/02 08:10:56;;;;;;;11.45;10.27;;;;;;;27.33;59.51;64832.78;5024794;28;20202;-77
2022/07/02 08:13:25;;;;;;;13.13;10.13;;;;;;;27.55;59.57;64857.94;5026379;28;20221;-76
2022/07/02 08:15:52;;;;;;;11.93;9.90;;;;;;;27.90;57.39;64897.31;5031625;28;20229;-76
2022/07/02 08:18:19;;;;;;;10.57;9.65;;;;;;;28.09;56.91;64919.88;5030644;28;20241;-76
2022/07/02 08:20:46;;;;;;;12.93;8.70;;;;;;;28.10;54.47;64916.22;5024706;28;20202;-75
2022/07/02 08:23:13;;;;;;;12.48;9.75;;;;;;;28.17;55.02;64925.66;5024464;28;20515;-76
2022/07/02 08:25:40;;;;;;;10.45;9.40;;;;;;;28.32;55.89;64936.16;5024909;28;20202;-76
2022/07/02 08:28:06;;;;;;;15.25;9.90;;;;;;;28.54;57.30;64958.78;5024433;28;20222;-76
2022/07/02 08:30:35;;;;;;;11.55;9.30;;;;;;;28.77;54.09;64985.56;5024933;28;20205;-76
2022/07/02 08:33:02;;;;;;;13.85;9.70;;;;;;;28.90;52.26;64994.47;5024097;28;20268;-76
2022/07/02 08:35:29;;;;;;;10.50;9.07;;;;;;;28.76;53.63;64984.50;5023612;28;20487;-76
2022/07/02 08:37:56;;;;;;;12.15;8.45;;;;;;;28.71;51.85;64981.88;5022695;28;20234;-75
2022/07/02 08:40:25;;;;;;;15.52;10.00;;;;;;;28.91;50.63;65000.78;5021728;28;20225;-76
2022/07/02 08:42:54;;;;;;;8.63;7.93;;;;;;;29.24;47.89;65037.56;5011619;28;20272;-76
2022/07/02 08:45:24;;;;;;;9.48;8.30;;;;;;;29.46;48.84;65055.41;5023771;28;20471;-76
2022/07/02 08:47:54;;;;;;;10.07;9.10;;;;;;;29.74;50.53;65092.22;5024391;28;20221;-76
2022/07/02 08:50:22;;;;;;;9.27;8.00;;;;;;;29.97;48.68;65121.66;5009112;28;20542;-77
2022/07/02 08:52:51;;;;;;;8.55;7.85;;;;;;;30.03;47.21;65122.72;5021752;28;20222;-78
2022/07/02 08:55:19;;;;;;;9.45;8.43;;;;;;;29.84;47.36;65097.50;5023096;28;20229;-77
2022/07/02 08:57:48;;;;;;;10.07;9.02;;;;;;;30.04;48.00;65113.78;5023166;28;20415;-78
2022/07/02 09:00:15;;;;;;;9.30;8.55;;;;;;;30.30;47.90;65145.88;5016061;28;20199;-77
2022/07/02 09:02:43;;;;;;;9.95;8.98;;;;;;;30.54;47.50;65171.63;5023360;28;20261;-77
2022/07/02 09:05:13;;;;;;;9.50;8.10;;;;;;;30.66;46.94;65183.19;5018708;28;20522;-78
2022/07/02 09:07:40;;;;;;;8.63;7.43;;;;;;;30.44;45.98;65160.59;5012206;28;20226;-77
2022/07/02 09:10:08;;;;;;;7.75;7.15;;;;;;;30.36;47.07;65152.16;5014618;28;20233;-76
2022/07/02 09:12:35;;;;;;;10.52;7.75;;;;;;;30.53;46.48;65170.56;5017177;28;20218;-77
2022/07/02 09:15:04;;;;;;;10.02;8.40;;;;;;;30.63;44.08;65181.09;5012122;28;20238;-77
2022/07/02 09:17:31;;;;;;;8.73;8.02;;;;;;;30.28;45.01;65143.75;5013195;28;20253;-77
2022/07/02 09:19:58;;;;;;;8.55;7.78;;;;;;;30.38;43.67;65157.44;5014392;28;20250;-76
2022/07/02 09:22:34;;;;;;;8.20;7.38;;;;;;;30.23;43.21;65139.03;5009805;28;20210;-77
2022/07/02 09:25:09;;;;;;;8.57;7.60;;;;;;;30.31;43.80;65146.91;5014898;28;20190;-78
2022/07/02 09:27:35;;;;;;;7.05;6.45;;;;;;;30.44;46.51;65163.22;5016855;28;20245;-77
2022/07/02 09:30:04;;;;;;;7.47;6.57;;;;;;;30.29;46.05;65142.72;5016505;28;20198;-78
2022/07/02 09:32:38;;;;;;;6.97;6.28;;;;;;;30.52;45.27;65166.38;5018285;28;20221;-77
2022/07/02 09:35:06;;;;;;;15.82;13.93;;;;;;;30.83;42.41;65201.63;5013346;28;20240;-77
2022/07/02 09:37:35;;;;;;;10.60;7.88;;;;;;;30.85;41.87;65205.84;5012796;28;20237;-78
2022/07/02 09:40:03;;;;;;;7.63;5.78;;;;;;;30.90;40.72;65211.63;5013976;28;20245;-77
2022/07/02 09:42:32;;;;;;;6.10;5.60;;;;;;;30.97;40.70;65213.19;5013870;28;20234;-77
2022/07/02 09:45:02;;;;;;;10.30;6.28;;;;;;;31.04;40.70;65228.97;5016329;28;20201;-77
2022/07/02 09:47:33;;;;;;;7.05;6.40;;;;;;;31.28;43.71;65251.06;5013073;28;20229;-77
2022/07/02 09:50:04;;;;;;;6.88;6.05;;;;;;;31.33;46.08;65256.31;5012483;28;20388;-77
2022/07/02 09:52:31;;;;;;;6.00;5.60;;;;;;;31.52;43.59;65274.25;5012211;28;20242;-76
2022/07/02 09:54:59;;;;;;;7.28;6.22;;;;;;;31.45;43.94;65268.97;5012202;28;20254;-77
2022/07/02 09:57:28;;;;;;;7.28;6.70;;;;;;;31.64;43.59;65288.97;5015219;28;20225;-77
2022/07/02 10:00:03;;;;;;;7.60;6.95;;;;;;;31.66;42.75;65291.09;5011483;28;20241;-77
2022/07/02 10:02:31;;;;;;;7.28;6.72;;;;;;;31.79;43.75;65307.38;5016448;28;20225;-78
2022/07/02 10:04:58;;;;;;;7.55;6.25;;;;;;;31.91;43.36;65320.03;5015538;28;20299;-77
2022/07/02 10:07:25;;;;;;;7.47;6.75;;;;;;;31.94;41.33;65317.41;5017043;28;20224;-78
2022/07/02 10:09:52;;;;;;;6.78;6.10;;;;;;;32.11;42.92;65341.09;5009965;28;21123;-77
2022/07/02 10:12:21;;;;;;;8.82;6.10;;;;;;;32.36;41.77;65367.44;5016666;28;20519;-77
2022/07/02 10:14:48;;;;;;;8.57;6.78;;;;;;;32.41;42.36;65367.44;5017308;28;20511;-79
2022/07/02 10:17:16;;;;;;;7.13;6.63;;;;;;;32.39;41.33;65365.31;5014121;28;20226;-77
2022/07/02 10:19:44;;;;;;;10.57;6.60;;;;;;;32.24;41.41;65354.78;5018957;28;20210;-78
2022/07/02 10:22:11;;;;;;;7.07;6.47;;;;;;;32.29;41.79;65357.41;5018915;28;20240;-77
2022/07/02 10:24:47;;;;;;;8.77;6.82;;;;;;;32.19;41.09;65343.72;5017562;28;20309;-79
2022/07/02 10:27:16;;;;;;;14.82;7.32;;;;;;;32.05;39.91;65334.28;5014640;28;20222;-79
2022/07/02 10:29:54;;;;;;;7.18;6.50;;;;;;;31.95;39.65;65319.00;5016763;28;20206;-79
2022/07/02 10:32:33;;;;;;;6.40;5.93;;;;;;;31.88;38.42;65314.25;5021265;28;20229;-77
2022/07/02 10:35:09;;;;;;;7.75;6.70;;;;;;;31.44;39.41;65262.66;5021031;28;20479;-77
2022/07/02 10:37:39;;;;;;;7.40;6.68;;;;;;;31.61;41.96;65283.19;5013446;28;20234;-77
2022/07/02 10:40:07;;;;;;;7.90;7.07;;;;;;;31.82;44.38;65307.94;5017561;28;20229;-78
2022/07/02 10:42:41;;;;;;;9.70;7.00;;;;;;;31.80;42.69;65303.19;5017371;28;20225;-77
2022/07/02 10:45:15;;;;;;;10.68;7.60;;;;;;;32.13;44.66;65337.41;5020157;28;20502;-77
2022/07/02 10:47:57;;;;;;;7.70;7.00;;;;;;;32.43;40.65;65369.00;5030597;28;20222;-76
2022/07/02 10:50:28;;;;;;;7.72;6.95;;;;;;;31.87;40.42;65307.38;5029403;28;20198;-76
2022/07/02 10:52:55;;;;;;;9.23;6.80;;;;;;;31.85;38.88;65307.91;5028292;28;20244;-77
2022/07/02 10:55:30;;;;;;;7.13;6.60;;;;;;;32.12;39.84;65341.63;5026032;28;20205;-77
2022/07/02 10:57:59;;;;;;;7.63;7.03;;;;;;;32.66;43.33;65390.59;5028013;28;20303;-77
2022/07/02 11:00:33;;;;;;;7.18;6.70;;;;;;;33.20;39.22;65446.97;5028207;28;20205;-77
2022/07/02 11:03:10;;;;;;;7.38;6.25;;;;;;;33.29;39.86;65459.63;5026677;28;20229;-77
2022/07/02 11:05:52;;;;;;;8.07;6.72;;;;;;;33.48;37.65;65479.13;5020924;28;20194;-78
2022/07/02 11:08:46;;;;;;;10.25;6.78;;;;;;;33.47;38.66;65481.25;5026008;28;20277;-78
2022/07/02 11:11:16;;;;;;;10.35;6.85;;;;;;;33.96;40.19;65529.75;5027136;28;20228;-77
2022/07/02 11:13:47;;;;;;;7.70;7.00;;;;;;;34.15;38.25;65551.88;5026698;28;20226;-77
2022/07/02 11:16:21;;;;;;;7.75;6.68;;;;;;;34.18;38.24;65557.69;5029475;28;20199;-77
2022/07/02 11:18:49;;;;;;;7.18;6.70;;;;;;;33.99;36.95;65535.00;5021497;28;20218;-79
2022/07/02 11:21:17;;;;;;;7.70;6.75;;;;;;;34.16;38.55;65548.19;5022520;28;20491;-78
2022/07/02 11:23:45;;;;;;;6.80;6.18;;;;;;;33.87;36.93;65522.88;5026543;28;20229;-79
2022/07/02 11:26:16;;;;;;;8.85;6.82;;;;;;;33.45;37.21;65476.50;5026371;28;20198;-80
2022/07/02 11:28:46;;;;;;;6.78;6.18;;;;;;;33.50;38.72;65487.06;5025714;28;20229;-81
2022/07/02 11:31:13;;;;;;;6.18;5.88;;;;;;;33.14;38.12;65448.56;5027951;28;20232;-77
2022/07/02 11:33:46;;;;;;;7.97;6.93;;;;;;;33.18;37.87;65447.50;5028656;28;20218;-78
2022/07/02 11:36:13;;;;;;;7.22;6.60;;;;;;;33.13;39.66;65442.25;5025041;28;20217;-78